Terminal Aerodrome Forecast
Issued by NWS

Home | Current Version | Previous Version | Text Only | Print | Product List | Glossary On
Versions: 1 2 3 4 5 6 7 8 9 10 11 12 13 14 15 16 17 18 19 20 21 22 23 24 25
000
FTUS46 KMTR 192100 AAA
TAFSFO
TAF AMD
KSFO 192108Z 1921/2024 26010KT P6SM FEW020
     FM192200 28020G28KT P6SM SCT020
      TEMPO 2001/2004 BKN020
     FM200400 26010KT P6SM SCT015
     FM200800 28004KT P6SM SCT010
     FM202000 30016KT P6SM SKC=

USA.gov is the U.S. government's official web portal to all federal, state and local government web resources and services.